Eems Servant — PBTI — position and weather

sailwx.info

Track history (hours):
 
Tides and Currents Weather Stations Pressure Air Temp Water Temp Dewpoint Dewpoint Depression Visibility Wind Speed Wind Dir Waves Ship Positions

Eems Servant

Last reported at 2017-Mar-25 12:13 UTC. Time now 2017-Mar-25 21:31 UTC.
Position N 50°12' W 001°41'.

Length 87 m; draft 4 m.

Type: Cargo ship. MMSI: 246236000.

Date/timePositionNaut miles runAvg speedWind from/ knotsBaromVisibWave heightAir tempDewpointWater temp
2017-Mar-25 12:13N 50°12' W 001°41'61 8.8
2017-Mar-25 05:15N 50°30' W 000°09'46 9.4
2017-Mar-25 00:19N 50°49' E 000°58'8 9.1
2017-Mar-24 23:28N 50°53' E 001°07'8 8.2
2017-Mar-24 22:30N 50°59' E 001°17'8 7.5
2017-Mar-24 21:26N 51°04' E 001°26'7 8.1
2017-Mar-24 20:33N 51°09' E 001°35'9 8.8
2017-Mar-24 19:33N 51°14' E 001°46'1010.1
2017-Mar-24 18:33N 51°24' E 001°53'1110.5
2017-Mar-24 17:31N 51°32' E 002°03'  
2017-Mar-22 01:07N 60°18' E 004°27'4 7.2
2017-Mar-22 00:33N 60°22' E 004°28'8 7.8
2017-Mar-21 23:33N 60°29' E 004°30'7 6.9
2017-Mar-21 22:33N 60°36' E 004°32'7 6.9
2017-Mar-21 21:33N 60°43' E 004°35'6 6.2
2017-Mar-21 20:33N 60°46' E 004°45'8 8.5
2017-Mar-21 19:33N 60°55' E 004°46'8 8.0
2017-Mar-21 18:33N 61°02' E 004°54'9 8.9
2017-Mar-21 17:33N 61°06' E 005°10'9 8.7
2017-Mar-21 16:32N 61°04' E 005°28'9 9.1
2017-Mar-21 15:33N 61°08' E 005°46'9 9.0
2017-Mar-21 14:31N 61°11' E 006°03'2 1.7
2017-Mar-21 13:31N 61°13' E 006°04'0 0.0
2017-Mar-21 12:31N 61°13' E 006°04'0 0.0
2017-Mar-21 11:25N 61°13' E 006°04'0 0.0
2017-Mar-21 10:31N 61°13' E 006°04'0 0.0
2017-Mar-21 09:31N 61°13' E 006°04'0 0.0
2017-Mar-21 08:25N 61°13' E 006°04'0 0.0
2017-Mar-21 07:31N 61°13' E 006°04'0 0.0
2017-Mar-21 06:31N 61°13' E 006°04'0 0.0
2017-Mar-21 05:33N 61°13' E 006°04'2 2.1
2017-Mar-21 04:33N 61°11' E 006°03'5 4.7
2017-Mar-21 03:33N 61°08' E 006°10'8 8.2
2017-Mar-21 02:33N 61°06' E 006°26'8 7.9
2017-Mar-21 01:32N 61°11' E 006°39'9 8.8
2017-Mar-21 00:33N 61°07' E 006°56'9 9.3
2017-Mar-20 23:33N 61°09' E 007°14'6 6.4
2017-Mar-20 22:33N 61°07' E 007°26'0 0.0
2017-Mar-20 21:33N 61°07' E 007°26'0 0.1
2017-Mar-20 20:33N 61°06' E 007°26'0 0.1
2017-Mar-20 19:33N 61°07' E 007°26'0 0.0
2017-Mar-20 18:33N 61°07' E 007°26'0 0.0
2017-Mar-20 17:33N 61°07' E 007°26'0 0.0
2017-Mar-20 16:33N 61°07' E 007°26'0 0.1
2017-Mar-20 15:33N 61°07' E 007°26'0 0.1
2017-Mar-20 14:33N 61°06' E 007°26'7 7.0
2017-Mar-20 13:33N 61°09' E 007°13'9 9.0
2017-Mar-20 12:33N 61°12' E 007°30'7 6.4
2017-Mar-20 11:32N 61°14' E 007°43'0 0.0
2017-Mar-20 10:29N 61°14' E 007°43'0 0.0
2017-Mar-20 09:32N 61°14' E 007°43'0 0.0
2017-Mar-20 08:32N 61°14' E 007°43'0 0.0
2017-Mar-20 07:32N 61°14' E 007°43'0 0.0
2017-Mar-20 06:32N 61°14' E 007°43'0 0.0
2017-Mar-20 05:32N 61°14' E 007°43'0 0.0
2017-Mar-20 04:32N 61°14' E 007°43'0 0.0
2017-Mar-20 03:32N 61°14' E 007°43'0 0.0
2017-Mar-20 02:32N 61°14' E 007°43'0 0.0
2017-Mar-20 01:32N 61°14' E 007°43'0 0.0
2017-Mar-20 00:32N 61°14' E 007°43'0 0.0
2017-Mar-19 23:32N 61°14' E 007°43'0 0.0
2017-Mar-19 22:32N 61°14' E 007°43'0 0.0
2017-Mar-19 21:32N 61°14' E 007°43'0 0.0
2017-Mar-19 20:32N 61°14' E 007°43'0 0.0
2017-Mar-19 19:32N 61°14' E 007°43'0 0.0
2017-Mar-19 18:32N 61°14' E 007°43'0 0.0
2017-Mar-19 17:32N 61°14' E 007°43'0 0.0
2017-Mar-19 16:32N 61°14' E 007°43'0 0.0
2017-Mar-19 15:32N 61°14' E 007°43'0 0.0
2017-Mar-19 14:32N 61°14' E 007°43'0 0.0
2017-Mar-19 13:32N 61°14' E 007°43'0 0.0
2017-Mar-19 12:32N 61°14' E 007°43'0 0.0
2017-Mar-19 11:32N 61°14' E 007°43'0 0.0
2017-Mar-19 10:32N 61°14' E 007°43'0 0.0
2017-Mar-19 09:32N 61°14' E 007°43'0 0.0
2017-Mar-19 08:32N 61°14' E 007°43'0 0.0
2017-Mar-19 07:32N 61°14' E 007°43'0 0.0
2017-Mar-19 06:32N 61°14' E 007°43'0 0.0
2017-Mar-19 05:29N 61°14' E 007°43'0 0.0
2017-Mar-19 04:32N 61°14' E 007°43'0 0.0
2017-Mar-19 03:32N 61°14' E 007°43'0 0.0
2017-Mar-19 02:32N 61°14' E 007°43'0 0.0
2017-Mar-19 01:32N 61°14' E 007°43'0 0.0
2017-Mar-19 00:32N 61°14' E 007°43'0 0.0
2017-Mar-18 23:32N 61°14' E 007°43'0 0.0
2017-Mar-18 22:32N 61°14' E 007°43'0 0.0
2017-Mar-18 21:32N 61°14' E 007°43'0 0.0
2017-Mar-18 20:32N 61°14' E 007°43'0 0.0
2017-Mar-18 19:32N 61°14' E 007°43'0 0.0
2017-Mar-18 18:32N 61°14' E 007°43'0 0.0
2017-Mar-18 17:32N 61°14' E 007°43'0 0.0
2017-Mar-18 16:32N 61°14' E 007°43'0 0.0
2017-Mar-18 15:32N 61°14' E 007°43'0 0.0
2017-Mar-18 14:32N 61°14' E 007°43'0 0.0
2017-Mar-18 13:32N 61°14' E 007°43'0 0.0
2017-Mar-18 12:32N 61°14' E 007°43'5 4.7
2017-Mar-18 11:32N 61°12' E 007°34'10 9.6
2017-Mar-18 10:33N 61°09' E 007°15'10 9.7
2017-Mar-18 09:33N 61°07' E 006°56'10 9.7
2017-Mar-18 08:33N 61°10' E 006°37'9 9.4
2017-Mar-18 07:33N 61°06' E 006°19'1010.4
2017-Mar-18 06:33N 61°08' E 005°58'1010.3
2017-Mar-18 05:32N 61°06' E 005°37'10 9.7
2017-Mar-18 04:33N 61°05' E 005°17'9 9.1
2017-Mar-18 03:33N 61°03' E 004°58'10 9.7
2017-Mar-18 02:33N 60°57' E 004°43'9 8.7
2017-Mar-18 01:33N 60°48' E 004°44'6 6.0
2017-Mar-18 00:33N 60°44' E 004°36'8 8.0
2017-Mar-17 23:33N 60°37' E 004°26'  
Track history (hours):
 
Tides and Currents Weather Stations Pressure Air Temp Water Temp Dewpoint Dewpoint Depression Visibility Wind Speed Wind Dir Waves Ship Positions

Eems Servant

Last reported at 2017-Mar-25 12:13 UTC. Time now 2017-Mar-25 21:31 UTC.
Position N 50°12' W 001°41'.

Length 87 m; draft 4 m.

Type: Cargo ship. MMSI: 246236000.

Date/timePositionNaut miles runAvg speedWind from/ knotsBaromVisibWave heightAir tempDewpointWater temp
2017-Mar-25 12:13N 50°12' W 001°41'61 8.8
2017-Mar-25 05:15N 50°30' W 000°09'46 9.4
2017-Mar-25 00:19N 50°49' E 000°58'8 9.1
2017-Mar-24 23:28N 50°53' E 001°07'8 8.2
2017-Mar-24 22:30N 50°59' E 001°17'8 7.5
2017-Mar-24 21:26N 51°04' E 001°26'7 8.1
2017-Mar-24 20:33N 51°09' E 001°35'9 8.8
2017-Mar-24 19:33N 51°14' E 001°46'1010.1
2017-Mar-24 18:33N 51°24' E 001°53'1110.5
2017-Mar-24 17:31N 51°32' E 002°03'  
2017-Mar-22 01:07N 60°18' E 004°27'4 7.2
2017-Mar-22 00:33N 60°22' E 004°28'8 7.8
2017-Mar-21 23:33N 60°29' E 004°30'7 6.9
2017-Mar-21 22:33N 60°36' E 004°32'7 6.9
2017-Mar-21 21:33N 60°43' E 004°35'6 6.2
2017-Mar-21 20:33N 60°46' E 004°45'8 8.5
2017-Mar-21 19:33N 60°55' E 004°46'8 8.0
2017-Mar-21 18:33N 61°02' E 004°54'9 8.9
2017-Mar-21 17:33N 61°06' E 005°10'9 8.7
2017-Mar-21 16:32N 61°04' E 005°28'9 9.1
2017-Mar-21 15:33N 61°08' E 005°46'9 9.0
2017-Mar-21 14:31N 61°11' E 006°03'2 1.7
2017-Mar-21 13:31N 61°13' E 006°04'0 0.0
2017-Mar-21 12:31N 61°13' E 006°04'0 0.0
2017-Mar-21 11:25N 61°13' E 006°04'0 0.0
2017-Mar-21 10:31N 61°13' E 006°04'0 0.0
2017-Mar-21 09:31N 61°13' E 006°04'0 0.0
2017-Mar-21 08:25N 61°13' E 006°04'0 0.0
2017-Mar-21 07:31N 61°13' E 006°04'0 0.0
2017-Mar-21 06:31N 61°13' E 006°04'0 0.0
2017-Mar-21 05:33N 61°13' E 006°04'2 2.1
2017-Mar-21 04:33N 61°11' E 006°03'5 4.7
2017-Mar-21 03:33N 61°08' E 006°10'8 8.2
2017-Mar-21 02:33N 61°06' E 006°26'8 7.9
2017-Mar-21 01:32N 61°11' E 006°39'9 8.8
2017-Mar-21 00:33N 61°07' E 006°56'9 9.3
2017-Mar-20 23:33N 61°09' E 007°14'6 6.4
2017-Mar-20 22:33N 61°07' E 007°26'0 0.0
2017-Mar-20 21:33N 61°07' E 007°26'0 0.1
2017-Mar-20 20:33N 61°06' E 007°26'0 0.1
2017-Mar-20 19:33N 61°07' E 007°26'0 0.0
2017-Mar-20 18:33N 61°07' E 007°26'0 0.0
2017-Mar-20 17:33N 61°07' E 007°26'0 0.0
2017-Mar-20 16:33N 61°07' E 007°26'0 0.1
2017-Mar-20 15:33N 61°07' E 007°26'0 0.1
2017-Mar-20 14:33N 61°06' E 007°26'7 7.0
2017-Mar-20 13:33N 61°09' E 007°13'9 9.0
2017-Mar-20 12:33N 61°12' E 007°30'7 6.4
2017-Mar-20 11:32N 61°14' E 007°43'0 0.0
2017-Mar-20 10:29N 61°14' E 007°43'0 0.0
2017-Mar-20 09:32N 61°14' E 007°43'0 0.0
2017-Mar-20 08:32N 61°14' E 007°43'0 0.0
2017-Mar-20 07:32N 61°14' E 007°43'0 0.0
2017-Mar-20 06:32N 61°14' E 007°43'0 0.0
2017-Mar-20 05:32N 61°14' E 007°43'0 0.0
2017-Mar-20 04:32N 61°14' E 007°43'0 0.0
2017-Mar-20 03:32N 61°14' E 007°43'0 0.0
2017-Mar-20 02:32N 61°14' E 007°43'0 0.0
2017-Mar-20 01:32N 61°14' E 007°43'0 0.0
2017-Mar-20 00:32N 61°14' E 007°43'0 0.0
2017-Mar-19 23:32N 61°14' E 007°43'0 0.0
2017-Mar-19 22:32N 61°14' E 007°43'0 0.0
2017-Mar-19 21:32N 61°14' E 007°43'0 0.0
2017-Mar-19 20:32N 61°14' E 007°43'0 0.0
2017-Mar-19 19:32N 61°14' E 007°43'0 0.0
2017-Mar-19 18:32N 61°14' E 007°43'0 0.0
2017-Mar-19 17:32N 61°14' E 007°43'0 0.0
2017-Mar-19 16:32N 61°14' E 007°43'0 0.0
2017-Mar-19 15:32N 61°14' E 007°43'0 0.0
2017-Mar-19 14:32N 61°14' E 007°43'0 0.0
2017-Mar-19 13:32N 61°14' E 007°43'0 0.0
2017-Mar-19 12:32N 61°14' E 007°43'0 0.0
2017-Mar-19 11:32N 61°14' E 007°43'0 0.0
2017-Mar-19 10:32N 61°14' E 007°43'0 0.0
2017-Mar-19 09:32N 61°14' E 007°43'0 0.0
2017-Mar-19 08:32N 61°14' E 007°43'0 0.0
2017-Mar-19 07:32N 61°14' E 007°43'0 0.0
2017-Mar-19 06:32N 61°14' E 007°43'0 0.0
2017-Mar-19 05:29N 61°14' E 007°43'0 0.0
2017-Mar-19 04:32N 61°14' E 007°43'0 0.0
2017-Mar-19 03:32N 61°14' E 007°43'0 0.0
2017-Mar-19 02:32N 61°14' E 007°43'0 0.0
2017-Mar-19 01:32N 61°14' E 007°43'0 0.0
2017-Mar-19 00:32N 61°14' E 007°43'0 0.0
2017-Mar-18 23:32N 61°14' E 007°43'0 0.0
2017-Mar-18 22:32N 61°14' E 007°43'0 0.0
2017-Mar-18 21:32N 61°14' E 007°43'0 0.0
2017-Mar-18 20:32N 61°14' E 007°43'0 0.0
2017-Mar-18 19:32N 61°14' E 007°43'0 0.0
2017-Mar-18 18:32N 61°14' E 007°43'0 0.0
2017-Mar-18 17:32N 61°14' E 007°43'0 0.0
2017-Mar-18 16:32N 61°14' E 007°43'0 0.0
2017-Mar-18 15:32N 61°14' E 007°43'0 0.0
2017-Mar-18 14:32N 61°14' E 007°43'0 0.0
2017-Mar-18 13:32N 61°14' E 007°43'0 0.0
2017-Mar-18 12:32N 61°14' E 007°43'5 4.7
2017-Mar-18 11:32N 61°12' E 007°34'10 9.6
2017-Mar-18 10:33N 61°09' E 007°15'10 9.7
2017-Mar-18 09:33N 61°07' E 006°56'10 9.7
2017-Mar-18 08:33N 61°10' E 006°37'9 9.4
2017-Mar-18 07:33N 61°06' E 006°19'1010.4
2017-Mar-18 06:33N 61°08' E 005°58'1010.3
2017-Mar-18 05:32N 61°06' E 005°37'10 9.7
2017-Mar-18 04:33N 61°05' E 005°17'9 9.1
2017-Mar-18 03:33N 61°03' E 004°58'10 9.7
2017-Mar-18 02:33N 60°57' E 004°43'9 8.7
2017-Mar-18 01:33N 60°48' E 004°44'6 6.0
2017-Mar-18 00:33N 60°44' E 004°36'8 8.0
2017-Mar-17 23:33N 60°37' E 004°26'  

Dump ship's entire track history